Time;durP1;ratioP1;P1;durP2;ratioP2;P2;SDS_P1;SDS_P2;PMS_P1;PMS_P2;Temp;Humidity;BMP_temperature;BMP_pressure;BME280_temperature;BME280_humidity;BME280_pressure;Samples;Min_cycle;Max_cycle;Signal;HPM_P1;HPM_P2
2022/04/25 00:01:22;;;;;;;5.05;3.00;;;7.40;99.90;;;;;;6307756;22;20017;-85
2022/04/25 00:03:48;;;;;;;4.28;2.33;;;6.90;99.90;;;;;;6307415;22;20095;-85
2022/04/25 00:06:14;;;;;;;5.43;2.80;;;6.80;99.90;;;;;;6307957;22;20015;-85
2022/04/25 00:08:39;;;;;;;6.40;2.38;;;6.90;99.90;;;;;;6280124;22;20449;-86
2022/04/25 00:11:05;;;;;;;5.50;2.20;;;7.80;99.90;;;;;;6308067;22;20526;-85
2022/04/25 00:13:32;;;;;;;3.90;2.00;;;7.80;99.90;;;;;;6307998;22;20046;-85
2022/04/25 00:15:57;;;;;;;5.60;2.20;;;7.40;99.90;;;;;;6280578;22;20031;-85
2022/04/25 00:18:23;;;;;;;4.25;2.05;;;6.20;99.90;;;;;;6280078;22;20011;-85
2022/04/25 00:20:49;;;;;;;4.68;2.33;;;8.00;99.90;;;;;;6280229;22;20019;-85
2022/04/25 00:23:15;;;;;;;3.58;2.00;;;8.10;99.90;;;;;;6280334;22;20334;-85
2022/04/25 00:25:41;;;;;;;6.97;2.25;;;7.80;99.90;;;;;;6307603;22;20335;-85
2022/04/25 00:28:10;;;;;;;4.20;2.00;;;7.30;99.90;;;;;;6307550;22;20026;-85
2022/04/25 00:30:35;;;;;;;3.88;1.92;;;8.00;99.90;;;;;;6306841;22;20446;-86
2022/04/25 00:33:02;;;;;;;5.38;2.03;;;7.60;99.90;;;;;;6307531;22;20023;-85
2022/04/25 00:35:28;;;;;;;6.22;2.38;;;7.90;99.90;;;;;;6307589;22;20038;-85
2022/04/25 00:37:54;;;;;;;6.13;2.50;;;7.70;99.90;;;;;;6280044;22;20018;-85
2022/04/25 00:40:21;;;;;;;4.32;1.83;;;7.70;99.90;;;;;;6279881;22;20119;-86
2022/04/25 00:42:48;;;;;;;5.05;2.10;;;7.50;99.90;;;;;;6279873;22;20472;-85
2022/04/25 00:45:15;;;;;;;6.88;2.75;;;7.40;99.90;;;;;;6280089;22;20080;-86
2022/04/25 00:47:41;;;;;;;5.82;2.80;;;8.30;99.90;;;;;;6280083;22;20094;-85
2022/04/25 00:50:08;;;;;;;6.00;2.45;;;7.50;99.90;;;;;;6307336;22;20156;-86
2022/04/25 00:52:35;;;;;;;6.35;2.78;;;8.40;99.90;;;;;;6307281;22;20050;-85
2022/04/25 00:55:03;;;;;;;5.38;2.15;;;7.60;99.90;;;;;;6307547;22;20031;-85
2022/04/25 00:57:31;;;;;;;3.88;1.98;;;7.60;99.90;;;;;;6307552;22;20077;-86
2022/04/25 00:59:57;;;;;;;8.82;2.28;;;8.40;99.90;;;;;;6307642;22;20037;-85
2022/04/25 01:02:27;;;;;;;5.82;2.05;;;7.40;99.90;;;;;;6279199;22;20064;-86
2022/04/25 01:04:57;;;;;;;3.33;1.92;;;7.70;99.90;;;;;;6280138;22;20073;-84
2022/04/25 01:07:23;;;;;;;3.63;2.00;;;8.20;99.90;;;;;;6307326;22;20028;-85
2022/04/25 01:09:49;;;;;;;8.90;3.35;;;7.70;99.90;;;;;;6279773;22;20041;-86
2022/04/25 01:12:15;;;;;;;8.30;3.00;;;7.70;99.90;;;;;;6307357;22;20023;-86
2022/04/25 01:14:41;;;;;;;6.68;3.30;;;7.40;99.90;;;;;;6306618;22;20369;-86
2022/04/25 01:17:10;;;;;;;5.80;2.63;;;8.30;99.90;;;;;;6279741;22;20072;-86
2022/04/25 01:19:36;;;;;;;12.45;3.40;;;;;;;;;;6280305;22;20015;-85
2022/04/25 01:22:14;;;;;;;4.55;2.72;;;7.70;99.90;;;;;;6279964;22;20023;-84
2022/04/25 01:27:24;;;;;;;4.43;2.40;;;7.80;99.90;;;;;;6307184;22;20026;-86
2022/04/25 01:29:54;;;;;;;6.65;2.90;;;8.30;99.90;;;;;;6306443;22;20023;-85
2022/04/25 01:32:23;;;;;;;8.15;3.58;;;8.40;99.90;;;;;;6279577;22;20446;-84
2022/04/25 01:34:50;;;;;;;5.88;3.28;;;8.20;99.90;;;;;;6279423;22;20015;-84
2022/04/25 01:37:17;;;;;;;9.88;3.78;;;7.80;99.90;;;;;;6279957;22;20020;-85
2022/04/25 01:39:51;;;;;;;14.35;5.07;;;8.00;99.90;;;;;;6293209;22;20027;-85
2022/04/25 01:42:18;;;;;;;5.85;3.28;;;8.40;99.90;;;;;;6285898;22;20101;-86
2022/04/25 01:44:44;;;;;;;4.22;2.45;;;7.80;99.90;;;;;;6307076;22;20019;-86
2022/04/25 01:47:11;;;;;;;7.55;3.03;;;8.40;99.90;;;;;;6279986;22;20030;-86
2022/04/25 01:49:37;;;;;;;7.85;3.35;;;8.00;99.90;;;;;;6306930;22;20019;-85
2022/04/25 01:52:20;;;;;;;5.85;2.90;;;8.20;99.90;;;;;;6307207;22;20083;-86
2022/04/25 01:54:47;;;;;;;5.28;2.78;;;8.70;99.90;;;;;;6306508;22;20049;-86
2022/04/25 01:57:13;;;;;;;9.18;4.40;;;7.90;99.90;;;;;;6279881;22;20587;-86
2022/04/25 01:59:39;;;;;;;9.95;4.43;;;8.70;99.90;;;;;;6306821;22;20023;-86
2022/04/25 02:02:06;;;;;;;7.63;4.00;;;8.40;99.90;;;;;;6306986;22;20034;-85
2022/04/25 02:04:31;;;;;;;6.32;3.60;;;8.30;99.90;;;;;;6307006;22;20081;-86
2022/04/25 02:06:57;;;;;;;5.85;3.55;;;6.10;99.90;;;;;;6278869;22;20027;-86
2022/04/25 02:09:23;;;;;;;4.85;2.78;;;8.30;99.90;;;;;;6306950;22;20019;-84
2022/04/25 02:11:50;;;;;;;7.00;4.10;;;7.80;99.90;;;;;;6279560;22;20022;-85
2022/04/25 02:14:16;;;;;;;6.47;3.10;;;7.80;99.90;;;;;;6307023;22;20061;-86
2022/04/25 02:16:42;;;;;;;6.85;3.30;;;7.80;99.90;;;;;;6279199;22;20469;-86
2022/04/25 02:19:09;;;;;;;6.32;2.60;;;7.80;99.90;;;;;;6307179;22;20077;-86
2022/04/25 02:21:34;;;;;;;4.75;2.17;;;7.80;99.90;;;;;;6307158;22;20011;-85
2022/04/25 02:24:00;;;;;;;5.38;2.45;;;7.80;99.90;;;;;;6279402;22;20029;-86
2022/04/25 02:26:26;;;;;;;7.28;2.20;;;7.80;99.90;;;;;;6308817;22;20072;-86
2022/04/25 02:28:54;;;;;;;5.65;2.92;;;8.60;99.90;;;;;;6313360;22;20350;-86
2022/04/25 02:31:20;;;;;;;5.38;2.47;;;7.90;99.90;;;;;;6308750;22;20018;-85
2022/04/25 02:33:46;;;;;;;7.75;2.38;;;8.80;99.90;;;;;;6309336;22;20011;-86
2022/04/25 02:36:13;;;;;;;5.35;2.67;;;8.60;99.90;;;;;;6281613;22;20053;-85
2022/04/25 02:38:40;;;;;;;5.22;2.75;;;7.80;99.90;;;;;;6308920;22;20022;-85
2022/04/25 02:41:06;;;;;;;6.57;2.85;;;8.10;99.90;;;;;;6281380;22;20022;-87
2022/04/25 02:43:36;;;;;;;8.48;3.05;;;7.80;99.90;;;;;;6281463;22;20023;-85
2022/04/25 02:46:03;;;;;;;5.32;2.60;;;7.80;99.90;;;;;;6309548;22;20012;-86
2022/04/25 02:48:30;;;;;;;5.78;2.33;;;7.80;99.90;;;;;;6309212;22;20023;-85
2022/04/25 02:50:57;;;;;;;4.80;1.90;;;8.60;99.90;;;;;;6281719;22;20059;-86
2022/04/25 02:53:24;;;;;;;4.72;2.10;;;7.80;99.90;;;;;;6308734;22;20011;-86
2022/04/25 02:55:51;;;;;;;5.55;2.38;;;7.80;99.90;;;;;;6283056;22;20030;-86
2022/04/25 02:58:17;;;;;;;4.88;2.42;;;8.50;99.90;;;;;;6282362;22;20429;-86
2022/04/25 03:00:45;;;;;;;5.45;2.42;;;8.60;99.90;;;;;;6310243;22;20108;-85
2022/04/25 03:03:12;;;;;;;6.05;2.38;;;7.80;99.90;;;;;;6308810;22;20023;-85
2022/04/25 03:05:39;;;;;;;4.20;2.33;;;7.50;99.90;;;;;;6309011;22;20015;-86
2022/04/25 03:08:05;;;;;;;6.45;2.88;;;7.70;99.90;;;;;;6280496;22;20019;-85
2022/04/25 03:10:31;;;;;;;5.82;3.00;;;7.80;99.90;;;;;;6308521;22;20080;-85
2022/04/25 03:12:57;;;;;;;5.80;2.58;;;7.30;99.90;;;;;;6308553;22;20053;-85
2022/04/25 03:15:22;;;;;;;4.57;2.10;;;7.70;99.90;;;;;;6308759;22;20461;-86
2022/04/25 03:17:48;;;;;;;8.43;2.88;;;7.70;99.90;;;;;;6280936;22;20093;-86
2022/04/25 03:20:14;;;;;;;5.97;3.17;;;7.80;99.90;;;;;;6308625;22;20027;-86
2022/04/25 03:22:39;;;;;;;7.28;3.47;;;7.70;99.90;;;;;;6308870;22;20055;-86
2022/04/25 03:25:06;;;;;;;6.00;3.20;;;8.20;99.90;;;;;;6280843;22;20051;-85
2022/04/25 03:27:32;;;;;;;7.35;2.88;;;7.70;99.90;;;;;;6280828;22;20080;-86
2022/04/25 03:29:57;;;;;;;5.70;2.13;;;7.70;99.90;;;;;;6307610;22;20106;-86
2022/04/25 03:32:23;;;;;;;7.57;2.80;;;7.70;99.90;;;;;;6280814;22;20019;-85
2022/04/25 03:34:49;;;;;;;9.20;3.85;;;7.70;99.90;;;;;;6308420;22;20458;-86
2022/04/25 03:37:15;;;;;;;5.35;3.28;;;7.30;99.90;;;;;;6308446;22;20015;-85
2022/04/25 03:39:40;;;;;;;5.38;3.05;;;7.80;99.90;;;;;;6308081;22;20381;-85
2022/04/25 03:42:06;;;;;;;6.85;3.08;;;7.40;99.90;;;;;;6281405;22;20011;-86
2022/04/25 03:44:32;;;;;;;7.05;3.45;;;7.60;99.90;;;;;;6308302;22;20019;-85
2022/04/25 03:46:57;;;;;;;8.02;3.70;;;8.20;99.90;;;;;;6281227;22;20023;-86
2022/04/25 03:49:23;;;;;;;7.82;3.25;;;8.40;99.90;;;;;;6280647;22;20019;-85
2022/04/25 03:51:49;;;;;;;7.65;3.28;;;7.60;99.90;;;;;;6308420;22;20023;-85
2022/04/25 03:57:09;;;;;;;5.10;3.20;;;7.60;99.90;;;;;;6280382;22;20020;-85
2022/04/25 03:57:12;;;;;;;5.82;2.60;;;8.40;99.90;;;;;;6307687;22;20469;-86
2022/04/25 03:59:39;;;;;;;8.13;4.18;;;7.70;99.90;;;;;;6280811;22;20027;-86
2022/04/25 04:02:05;;;;;;;7.20;3.90;;;8.40;99.90;;;;;;6307538;22;20396;-85
2022/04/25 04:04:31;;;;;;;4.63;2.83;;;7.50;99.90;;;;;;6307965;22;20402;-86
2022/04/25 04:06:57;;;;;;;6.53;3.70;;;7.50;99.90;;;;;;6280290;22;20030;-86
2022/04/25 04:12:09;;;;;;;6.20;3.45;;;7.00;99.90;;;;;;6308182;22;20022;-85
2022/04/25 04:14:39;;;;;;;7.90;3.40;;;7.40;99.90;;;;;;6279866;22;20049;-85
2022/04/25 04:17:07;;;;;;;8.80;3.97;;;7.40;99.90;;;;;;6279812;22;20019;-86
2022/04/25 04:19:37;;;;;;;5.72;3.05;;;8.10;99.90;;;;;;6280424;22;20018;-84
2022/04/25 04:22:06;;;;;;;6.93;3.55;;;7.60;99.90;;;;;;6307939;22;20023;-84
2022/04/25 04:24:34;;;;;;;9.30;3.95;;;7.40;99.90;;;;;;6307473;22;20375;-86
2022/04/25 04:27:04;;;;;;;6.70;4.32;;;8.50;99.90;;;;;;6280190;22;20026;-85
2022/04/25 04:29:31;;;;;;;7.05;4.13;;;8.10;99.90;;;;;;6307224;22;20026;-86
2022/04/25 04:31:59;;;;;;;7.13;4.05;;;7.40;99.90;;;;;;6307432;22;20449;-87
2022/04/25 04:34:25;;;;;;;8.20;3.70;;;7.90;99.90;;;;;;6307397;22;20019;-85
2022/04/25 04:36:51;;;;;;;6.25;3.35;;;7.90;99.90;;;;;;6307924;22;20026;-86
2022/04/25 04:39:17;;;;;;;8.30;3.35;;;8.40;99.90;;;;;;6280169;22;20019;-86
2022/04/25 04:41:44;;;;;;;9.63;4.00;;;7.90;99.90;;;;;;6279818;22;20027;-85
2022/04/25 04:44:10;;;;;;;6.55;3.88;;;7.40;99.90;;;;;;6307915;22;20019;-86
2022/04/25 04:46:35;;;;;;;7.90;4.72;;;7.40;99.90;;;;;;6279824;22;20025;-86
2022/04/25 04:49:01;;;;;;;7.25;4.10;;;7.40;99.90;;;;;;6280203;22;20031;-86
2022/04/25 04:51:27;;;;;;;8.05;4.15;;;7.40;99.90;;;;;;6307144;22;20503;-86
2022/04/25 04:53:53;;;;;;;7.30;3.08;;;7.70;99.90;;;;;;6307397;22;20053;-86
2022/04/25 04:56:18;;;;;;;5.95;2.97;;;8.20;99.90;;;;;;6279865;22;20023;-86
2022/04/25 04:58:45;;;;;;;6.05;3.17;;;8.30;99.90;;;;;;6279928;22;20027;-85
2022/04/25 05:01:11;;;;;;;6.35;3.33;;;7.50;99.90;;;;;;6279497;22;20323;-87
2022/04/25 05:03:39;;;;;;;8.98;4.72;;;7.50;99.90;;;;;;6307205;22;20017;-87
2022/04/25 05:06:05;;;;;;;10.82;4.10;;;7.80;99.90;;;;;;6279709;22;20019;-87
2022/04/25 05:08:31;;;;;;;9.82;6.25;;;7.50;99.90;;;;;;6307370;22;20053;-85
2022/04/25 05:10:57;;;;;;;6.28;3.85;;;7.80;99.90;;;;;;6307176;22;20019;-84
2022/04/25 05:13:23;;;;;;;9.00;3.70;;;7.50;99.90;;;;;;6279747;22;20053;-86
2022/04/25 05:15:48;;;;;;;5.82;4.28;;;8.30;99.90;;;;;;6307506;22;20023;-84
2022/04/25 05:18:15;;;;;;;7.80;3.60;;;6.80;99.90;;;;;;6279861;22;20047;-84
2022/04/25 05:20:41;;;;;;;7.85;4.20;;;7.50;99.90;;;;;;6307326;22;20023;-85
2022/04/25 05:23:10;;;;;;;10.18;4.30;;;7.30;99.90;;;;;;6307076;22;20021;-86
2022/04/25 05:25:38;;;;;;;8.43;4.25;;;7.60;99.90;;;;;;6279772;22;20094;-89
2022/04/25 05:28:05;;;;;;;6.45;4.13;;;8.40;99.90;;;;;;6279822;22;20027;-86
2022/04/25 05:30:32;;;;;;;5.22;3.33;;;7.60;99.90;;;;;;6279821;22;20023;-87
2022/04/25 05:33:02;;;;;;;7.90;4.10;;;7.60;99.90;;;;;;6280015;22;20153;-85
2022/04/25 05:35:33;;;;;;;9.27;3.67;;;8.30;99.90;;;;;;6307517;22;20019;-87
2022/04/25 05:37:59;;;;;;;8.20;3.75;;;7.50;99.90;;;;;;6279586;22;20062;-89
2022/04/25 05:40:27;;;;;;;9.68;5.10;;;7.80;99.90;;;;;;6280494;22;20018;-87
2022/04/25 05:42:55;;;;;;;8.48;4.32;;;7.80;99.90;;;;;;6307509;22;20027;-89
2022/04/25 05:45:24;;;;;;;7.13;4.50;;;7.90;99.90;;;;;;6279828;22;20085;-88
2022/04/25 05:47:51;;;;;;;7.13;3.70;;;7.60;99.90;;;;;;6307505;22;20380;-86
2022/04/25 05:53:04;;;;;;;6.93;3.40;;;8.10;99.90;;;;;;6279847;22;20405;-89
2022/04/25 05:55:29;;;;;;;7.10;3.50;;;8.40;99.90;;;;;;6307284;22;20019;-87
2022/04/25 05:57:56;;;;;;;7.85;3.47;;;7.70;99.90;;;;;;6307451;22;20019;-86
2022/04/25 06:00:24;;;;;;;8.48;3.13;;;8.40;99.90;;;;;;6279946;22;20105;-87
2022/04/25 06:02:50;;;;;;;7.13;2.92;;;7.70;99.90;;;;;;6307335;22;20045;-84
2022/04/25 06:05:16;;;;;;;6.18;3.00;;;7.60;99.90;;;;;;6307342;22;20015;-87
2022/04/25 06:07:43;;;;;;;5.43;2.58;;;7.60;99.90;;;;;;6307591;22;20095;-87
2022/04/25 06:10:10;;;;;;;6.50;2.55;;;8.10;99.90;;;;;;6307468;22;20022;-90
2022/04/25 06:12:50;;;;;;;6.07;2.88;;;6.50;99.90;;;;;;6279677;22;20015;-91
2022/04/25 06:15:17;;;;;;;4.82;2.75;;;8.50;99.90;;;;;;6307210;22;20023;-88
2022/04/25 06:17:42;;;;;;;7.93;3.47;;;7.80;99.90;;;;;;6307053;22;20026;-90
2022/04/25 06:20:09;;;;;;;15.13;3.75;;;7.70;99.90;;;;;;6307333;22;20020;-86
2022/04/25 06:22:36;;;;;;;6.03;3.35;;;8.00;99.90;;;;;;6281519;22;20408;-88
2022/04/25 06:25:05;;;;;;;5.72;2.65;;;8.30;99.90;;;;;;6307557;22;20323;-87
2022/04/25 06:27:32;;;;;;;5.32;2.40;;;7.80;99.90;;;;;;6307547;22;20019;-86
2022/04/25 06:29:58;;;;;;;5.10;2.40;;;8.70;99.90;;;;;;6306822;22;20026;-85
2022/04/25 06:32:24;;;;;;;9.40;3.53;;;7.90;99.90;;;;;;6307509;22;20441;-86
2022/04/25 06:34:50;;;;;;;5.72;3.03;;;8.70;99.90;;;;;;6281159;22;20523;-87
2022/04/25 06:37:16;;;;;;;6.80;3.13;;;8.40;99.90;;;;;;6315345;22;20020;-88
2022/04/25 06:39:42;;;;;;;6.60;3.45;;;8.60;99.90;;;;;;6314965;22;20077;-87
2022/04/25 06:42:09;;;;;;;7.60;3.10;;;8.20;99.90;;;;;;6308716;22;20346;-84
2022/04/25 06:44:35;;;;;;;6.82;3.05;;;8.00;99.90;;;;;;6280874;22;20096;-83
2022/04/25 06:47:01;;;;;;;14.88;3.85;;;7.10;99.90;;;;;;6279577;22;20020;-85
2022/04/25 06:49:27;;;;;;;6.20;2.63;;;8.00;99.90;;;;;;6307433;22;20019;-83
2022/04/25 06:51:59;;;;;;;8.02;2.97;;;7.90;99.90;;;;;;6308049;22;20053;-85
2022/04/25 06:54:26;;;;;;;5.00;2.25;;;8.70;99.90;;;;;;6308175;22;20011;-84
2022/04/25 06:56:53;;;;;;;5.78;2.92;;;8.80;99.90;;;;;;6309080;22;20038;-95
2022/04/25 06:59:20;;;;;;;7.00;3.22;;;8.60;99.90;;;;;;6312802;22;20018;-84
2022/04/25 07:01:47;;;;;;;6.93;2.65;;;8.20;99.90;;;;;;6280841;22;20042;-84
2022/04/25 07:04:13;;;;;;;7.45;3.45;;;7.20;99.90;;;;;;6278743;22;20105;-84
2022/04/25 07:06:40;;;;;;;5.25;2.80;;;8.10;99.90;;;;;;6253154;22;20051;-84
2022/04/25 07:09:15;;;;;;;7.60;4.25;;;9.00;99.90;;;;;;6306383;22;20015;-87
2022/04/25 07:11:44;;;;;;;7.22;3.45;;;8.40;99.90;;;;;;6278841;22;20022;-88
2022/04/25 07:14:12;;;;;;;5.50;2.75;;;8.50;99.90;;;;;;6280314;22;20817;-84
2022/04/25 07:16:39;;;;;;;8.07;3.25;;;8.90;99.90;;;;;;6308116;22;20026;-84
2022/04/25 07:19:06;;;;;;;6.43;2.33;;;8.60;99.90;;;;;;6308616;22;20322;-87
2022/04/25 07:29:48;;;;;;;7.07;2.72;;;8.80;99.90;;;;;;6307907;22;20023;-87
2022/04/25 07:32:16;;;;;;;6.65;2.35;;;8.90;99.90;;;;;;6308464;22;20449;-85
2022/04/25 07:34:48;;;;;;;4.93;1.83;;;8.80;99.90;;;;;;6280485;22;20037;-83
2022/04/25 07:37:16;;;;;;;10.32;2.22;;;9.60;99.90;;;;;;6308003;22;20081;-84
2022/04/25 07:39:42;;;;;;;5.53;2.20;;;9.40;99.90;;;;;;6280331;22;20061;-89
2022/04/25 07:42:08;;;;;;;7.90;2.08;;;8.70;99.90;;;;;;6308402;22;20145;-85
2022/04/25 07:44:34;;;;;;;6.43;2.20;;;8.50;99.90;;;;;;6255357;22;20027;-85
2022/04/25 07:47:00;;;;;;;2.67;1.90;;;9.10;99.90;;;;;;6303139;22;20027;-84
2022/04/25 07:49:27;;;;;;;4.20;1.63;;;9.50;99.90;;;;;;6308062;22;20023;-85
2022/04/25 07:51:54;;;;;;;6.75;2.45;;;8.50;99.90;;;;;;6308136;22;20034;-86
2022/04/25 07:54:19;;;;;;;4.15;2.53;;;8.60;99.90;;;;;;6307812;22;20015;-84
2022/04/25 07:56:45;;;;;;;8.43;3.08;;;8.60;99.90;;;;;;6307623;22;20027;-83
2022/04/25 07:59:11;;;;;;;4.65;2.05;;;8.80;99.90;;;;;;6308418;22;20098;-83
2022/04/25 08:01:38;;;;;;;6.53;1.90;;;9.50;99.90;;;;;;6254600;22;20028;-86
2022/04/25 08:04:03;;;;;;;3.88;2.22;;;8.80;99.90;;;;;;6307971;22;20066;-86
2022/04/25 08:06:29;;;;;;;5.45;2.03;;;8.90;99.90;;;;;;6307635;22;20399;-83
2022/04/25 08:08:56;;;;;;;5.63;2.00;;;8.80;99.90;;;;;;6279938;22;20011;-83
2022/04/25 08:11:23;;;;;;;5.45;2.33;;;8.90;99.90;;;;;;6279926;22;20408;-82
2022/04/25 08:19:20;;;;;;;4.17;1.90;;;9.20;99.90;;;;;;6307942;22;20095;-87
2022/04/25 08:21:46;;;;;;;4.72;1.92;;;9.30;99.90;;;;;;6307538;22;20266;-85
2022/04/25 08:24:13;;;;;;;4.47;2.00;;;9.10;99.90;;;;;;6307656;22;20054;-84
2022/04/25 08:26:39;;;;;;;6.45;1.77;;;9.20;99.90;;;;;;6307406;22;20460;-83
2022/04/25 08:29:06;;;;;;;3.25;1.55;;;9.20;99.90;;;;;;6307336;22;20019;-86
2022/04/25 08:31:33;;;;;;;3.45;1.40;;;9.20;99.90;;;;;;6279568;22;20059;-85
2022/04/25 08:34:00;;;;;;;7.00;2.20;;;9.40;99.90;;;;;;6279700;22;20042;-85
2022/04/25 08:36:26;;;;;;;6.30;2.20;;;9.50;99.90;;;;;;6280288;22;20027;-85
2022/04/25 08:38:52;;;;;;;5.80;2.03;;;9.90;99.90;;;;;;6280001;22;20023;-86
2022/04/25 08:41:57;;;;;;;4.25;1.77;;;10.30;99.90;;;;;;6307502;22;20573;-87
2022/04/25 08:44:24;;;;;;;5.65;2.03;;;9.50;99.90;;;;;;6303439;22;20019;-83
2022/04/25 08:46:52;;;;;;;6.53;1.77;;;10.20;99.90;;;;;;6307643;22;20050;-84
2022/04/25 08:49:21;;;;;;;3.63;2.00;;;9.80;99.90;;;;;;6307454;22;20015;-85
2022/04/25 08:51:49;;;;;;;3.78;1.90;;;9.90;99.90;;;;;;6307210;22;20019;-85
2022/04/25 08:54:15;;;;;;;2.65;1.55;;;10.20;99.90;;;;;;6306915;22;20062;-85
2022/04/25 08:56:42;;;;;;;3.45;1.50;;;10.50;99.90;;;;;;6307275;22;20027;-85
2022/04/25 08:59:09;;;;;;;3.83;1.70;;;10.80;99.90;;;;;;6307790;22;20096;-84
2022/04/25 09:01:36;;;;;;;5.63;1.45;;;10.90;99.90;;;;;;6306921;22;20030;-84
2022/04/25 09:04:03;;;;;;;2.65;1.10;;;11.00;99.90;;;;;;6307738;22;20026;-84
2022/04/25 09:06:29;;;;;;;4.35;1.52;;;11.10;99.90;;;;;;6307765;22;20015;-84
2022/04/25 09:08:55;;;;;;;3.45;1.45;;;11.30;99.90;;;;;;6308040;22;20096;-84
2022/04/25 09:14:05;;;;;;;3.47;1.38;;;11.10;99.90;;;;;;6308047;22;20099;-85
2022/04/25 09:16:31;;;;;;;1.95;1.02;;;11.00;99.90;;;;;;6280150;22;20399;-84
2022/04/25 09:18:58;;;;;;;2.83;1.45;;;10.90;99.90;;;;;;6307562;22;20015;-85
2022/04/25 09:21:24;;;;;;;3.30;1.05;;;10.90;99.90;;;;;;6307559;22;20023;-84
2022/04/25 09:23:51;;;;;;;2.50;1.00;;;11.10;99.90;;;;;;6280547;22;20077;-84
2022/04/25 09:26:24;;;;;;;3.28;1.65;;;11.20;99.90;;;;;;6307349;22;20019;-84
2022/04/25 09:28:55;;;;;;;3.10;1.63;;;11.30;99.90;;;;;;6307197;22;20026;-85
2022/04/25 09:31:25;;;;;;;2.67;1.05;;;11.40;99.90;;;;;;6307304;22;20102;-84
2022/04/25 09:33:51;;;;;;;4.28;1.50;;;11.40;99.90;;;;;;6279813;22;20876;-84
2022/04/25 09:36:17;;;;;;;4.75;1.33;;;11.40;99.90;;;;;;6307541;22;20015;-87
2022/04/25 09:38:43;;;;;;;3.22;1.30;;;11.40;99.90;;;;;;6307338;22;20030;-85
2022/04/25 09:41:14;;;;;;;3.20;1.17;;;11.50;99.90;;;;;;6307393;22;20338;-87
2022/04/25 09:43:41;;;;;;;5.22;1.40;;;11.50;99.90;;;;;;6279864;22;20030;-84
2022/04/25 09:46:14;;;;;;;4.03;1.40;;;12.20;99.90;;;;;;6307182;22;20007;-83
2022/04/25 09:48:43;;;;;;;3.80;1.17;;;11.70;99.90;;;;;;6279548;22;20019;-85
2022/04/25 09:51:14;;;;;;;4.63;1.48;;;11.70;99.90;;;;;;6307615;22;20053;-85
2022/04/25 09:53:52;;;;;;;5.78;1.83;;;11.80;99.90;;;;;;6307160;22;20017;-84
2022/04/25 09:56:24;;;;;;;2.30;1.17;;;11.90;99.90;;;;;;6307321;22;20073;-84
2022/04/25 09:59:08;;;;;;;3.00;1.50;;;12.20;99.90;;;;;;6307303;22;20022;-86
2022/04/25 10:01:39;;;;;;;2.95;1.25;;;12.50;99.90;;;;;;6306772;22;20023;-84
2022/04/25 10:04:26;;;;;;;3.53;1.30;;;12.50;99.90;;;;;;6307454;22;20076;-86
2022/04/25 10:06:54;;;;;;;5.47;2.15;;;12.40;99.90;;;;;;6306801;22;20353;-88
2022/04/25 10:09:23;;;;;;;3.83;1.60;;;12.40;99.90;;;;;;6279745;22;20023;-85
2022/04/25 10:11:52;;;;;;;2.10;1.27;;;12.50;99.90;;;;;;6254225;22;20061;-84
2022/04/25 10:14:18;;;;;;;2.65;1.40;;;12.70;99.90;;;;;;6279648;22;20023;-85
2022/04/25 10:16:45;;;;;;;4.13;1.33;;;12.80;99.90;;;;;;6279346;22;20028;-88
2022/04/25 10:19:11;;;;;;;3.60;1.65;;;12.80;99.90;;;;;;6254228;22;20034;-87
2022/04/25 10:21:37;;;;;;;3.88;1.50;;;13.00;99.90;;;;;;6306816;22;20015;-84
2022/04/25 10:24:04;;;;;;;3.83;1.33;;;12.90;99.90;;;;;;6279466;22;20034;-85
2022/04/25 10:26:30;;;;;;;6.03;1.08;;;13.10;99.90;;;;;;6279423;22;20023;-85
2022/04/25 10:29:01;;;;;;;2.17;1.08;;;13.20;99.90;;;;;;6306846;22;20058;-85
2022/04/25 10:31:41;;;;;;;5.43;1.80;;;13.50;99.90;;;;;;6279285;22;20477;-86
2022/04/25 10:34:07;;;;;;;2.88;1.50;;;13.50;99.90;;;;;;6306713;22;20050;-85
2022/04/25 10:36:39;;;;;;;3.17;1.10;;;13.60;99.90;;;;;;6307082;22;20398;-87
2022/04/25 10:39:12;;;;;;;7.20;1.70;;;13.80;99.90;;;;;;6279482;22;20023;-89
2022/04/25 10:44:24;;;;;;;2.38;1.20;;;14.30;99.90;;;;;;6279556;22;20051;-86
2022/04/25 10:47:11;;;;;;;6.13;2.90;;;14.40;99.90;;;;;;6306666;22;20023;-84
2022/04/25 10:49:46;;;;;;;4.10;1.30;;;14.40;99.90;;;;;;6308737;22;20023;-85
2022/04/25 10:52:33;;;;;;;2.88;1.50;;;14.50;99.90;;;;;;6281855;22;20054;-86
2022/04/25 10:55:20;;;;;;;2.97;1.40;;;14.70;99.90;;;;;;6282041;22;20377;-85
2022/04/25 10:58:04;;;;;;;3.80;1.00;;;15.00;99.90;;;;;;6309470;22;20015;-86
2022/04/25 11:00:36;;;;;;;3.58;1.20;;;15.40;99.90;;;;;;6308592;22;20016;-86
2022/04/25 11:03:10;;;;;;;4.45;1.63;;;15.20;99.90;;;;;;6280837;22;20023;-85
2022/04/25 11:05:38;;;;;;;3.10;1.17;;;15.30;99.90;;;;;;6308440;22;20017;-85
2022/04/25 11:08:19;;;;;;;3.38;1.25;;;15.40;99.90;;;;;;6280637;22;20023;-85
2022/04/25 11:10:47;;;;;;;4.07;1.15;;;15.30;99.90;;;;;;6308528;22;20066;-85
2022/04/25 11:13:18;;;;;;;4.15;1.38;;;15.50;99.90;;;;;;6280737;22;20446;-87
2022/04/25 11:15:45;;;;;;;5.25;1.50;;;15.20;99.90;;;;;;6308403;22;20030;-86
2022/04/25 11:18:33;;;;;;;6.70;1.48;;;15.20;99.90;;;;;;6280876;22;20092;-85
2022/04/25 11:21:29;;;;;;;5.63;1.30;;;15.20;99.90;;;;;;6280581;22;20385;-86
2022/04/25 11:23:54;;;;;;;4.53;1.90;;;15.20;99.90;;;;;;6308157;22;20019;-84
2022/04/25 11:26:23;;;;;;;5.55;1.30;;;14.90;99.90;;;;;;6308613;22;20505;-85
2022/04/25 11:28:55;;;;;;;4.32;1.55;;;14.70;99.90;;;;;;6280616;22;20023;-85
2022/04/25 11:31:26;;;;;;;4.95;1.67;;;14.50;99.90;;;;;;6280596;22;20023;-85
2022/04/25 11:33:55;;;;;;;4.63;1.45;;;14.30;99.90;;;;;;6280539;22;20438;-84
2022/04/25 11:36:22;;;;;;;4.70;1.48;;;14.40;99.90;;;;;;6280640;22;20365;-85
2022/04/25 11:41:36;;;;;;;4.15;1.88;;;14.70;99.90;;;;;;6308165;22;20392;-86
2022/04/25 11:44:02;;;;;;;3.08;1.92;;;14.60;99.90;;;;;;6308074;22;20105;-85
2022/04/25 11:46:30;;;;;;;8.02;1.70;;;14.30;99.90;;;;;;6308094;22;20154;-85
2022/04/25 11:48:57;;;;;;;6.22;1.83;;;14.20;99.90;;;;;;6307646;22;20057;-85
2022/04/25 11:51:29;;;;;;;4.03;1.48;;;14.20;99.90;;;;;;6307865;22;20019;-85
2022/04/25 11:54:04;;;;;;;3.55;1.40;;;14.40;99.90;;;;;;6313913;22;20054;-85
2022/04/25 11:56:31;;;;;;;;;;;14.60;99.90;;;;;;6313854;22;20053;-85
2022/04/25 11:58:58;;;;;;;4.95;1.73;;;14.50;99.90;;;;;;6308077;22;19915;-84
2022/04/25 12:01:39;;;;;;;6.13;2.42;;;14.50;99.90;;;;;;6279827;22;20098;-84
2022/04/25 12:04:25;;;;;;;4.70;1.50;;;14.80;99.90;;;;;;6307878;22;20026;-84
2022/04/25 12:07:04;;;;;;;4.00;1.63;;;14.70;99.90;;;;;;6280709;22;20019;-84
2022/04/25 12:15:35;;;;;;;6.85;1.20;;;15.00;99.90;;;;;;6307710;22;20051;-83
2022/04/25 12:18:23;;;;;;;4.60;1.13;;;15.10;99.90;;;;;;6280104;22;20441;-83
2022/04/25 12:20:51;;;;;;;2.45;1.45;;;15.20;99.90;;;;;;6307568;22;20023;-84
2022/04/25 12:23:28;;;;;;;5.55;1.58;;;15.30;99.90;;;;;;6307683;22;20130;-84
2022/04/25 12:25:55;;;;;;;7.00;1.38;;;15.30;99.90;;;;;;6280063;22;20329;-84
2022/04/25 12:28:22;;;;;;;9.50;1.75;;;15.20;99.90;;;;;;6307289;22;20034;-83
2022/04/25 12:31:04;;;;;;;5.38;1.98;;;14.90;99.90;;;;;;6307655;22;20453;-85
2022/04/25 12:33:39;;;;;;;5.47;1.70;;;14.80;99.90;;;;;;6307041;22;20019;-85
2022/04/25 12:36:32;;;;;;;3.42;1.50;;;14.70;99.90;;;;;;6279919;22;20023;-85
2022/04/25 12:39:00;;;;;;;2.50;1.40;;;14.80;99.90;;;;;;6302820;22;20066;-86
2022/04/25 12:41:32;;;;;;;3.20;1.10;;;14.60;99.90;;;;;;6307537;22;20030;-85
2022/04/25 12:44:13;;;;;;;5.20;1.83;;;14.80;99.90;;;;;;6280057;22;20094;-84
2022/04/25 12:46:43;;;;;;;4.28;1.80;;;15.00;99.90;;;;;;6307073;22;20061;-84
2022/04/25 12:49:11;;;;;;;3.63;1.90;;;15.10;99.90;;;;;;6307281;22;20027;-85
2022/04/25 12:51:45;;;;;;;7.93;2.40;;;14.90;99.90;;;;;;6307045;22;20068;-85
2022/04/25 12:54:20;;;;;;;4.13;1.83;;;15.00;99.90;;;;;;6306828;22;20011;-85
2022/04/25 12:56:47;;;;;;;2.50;1.30;;;15.10;99.90;;;;;;6307395;22;20030;-85
2022/04/25 12:59:22;;;;;;;4.05;2.00;;;15.20;99.90;;;;;;6307246;22;20016;-85
2022/04/25 13:02:00;;;;;;;4.75;1.65;;;15.20;99.90;;;;;;6306892;22;20020;-86
2022/04/25 13:04:26;;;;;;;5.95;1.98;;;15.40;99.90;;;;;;6279415;22;20102;-85
2022/04/25 13:06:52;;;;;;;2.78;1.25;;;15.50;99.90;;;;;;6307433;22;20023;-85
2022/04/25 13:09:18;;;;;;;3.92;1.50;;;15.60;99.90;;;;;;6307240;22;20018;-84
2022/04/25 13:11:44;;;;;;;6.25;1.58;;;15.90;99.90;;;;;;6306499;22;20019;-87
2022/04/25 13:14:09;;;;;;;3.10;1.73;;;15.90;99.90;;;;;;6307289;22;20045;-85
2022/04/25 13:16:35;;;;;;;4.20;1.70;;;15.80;99.90;;;;;;6307094;22;20022;-87
2022/04/25 13:19:01;;;;;;;3.67;1.80;;;15.80;99.90;;;;;;6307353;22;20027;-84
2022/04/25 13:21:27;;;;;;;3.85;1.90;;;16.00;99.90;;;;;;6306773;22;20453;-84
2022/04/25 13:23:53;;;;;;;5.65;1.75;;;15.90;99.90;;;;;;6306665;22;20055;-84
2022/04/25 13:26:20;;;;;;;4.10;1.90;;;15.90;99.90;;;;;;6280019;22;20019;-87
2022/04/25 13:28:46;;;;;;;7.20;1.70;;;15.90;99.90;;;;;;6306851;22;20157;-83
2022/04/25 13:31:12;;;;;;;4.95;1.90;;;16.00;99.90;;;;;;6307028;22;20450;-84
2022/04/25 13:33:38;;;;;;;5.47;1.95;;;16.20;99.90;;;;;;6306312;22;20015;-83
2022/04/25 13:36:07;;;;;;;6.75;1.85;;;16.00;99.90;;;;;;6306405;22;20019;-81